KBNL/BNL METAR and TAF weather

Enter ICAO airport designator
Station Type Date Time Source
KBNL METAR 2019/08/19 01:35 UTC NOAA

KBNL 190135Z AUTO 00000KT 10SM CLR 28/24 A3003 RMK AO2


Station Type Date Time Source
KBNL Decoded METAR 2019/08/19 01:35 UTC NOAA

Station name not available
Aug 18, 2019 - 09:35 PM EDT / 2019.08.19 0135 UTC
Wind: Calm:0
Visibility: 10 mile(s):0
Sky conditions: clear
Temperature: 82 F (28 C)
Dew Point: 75 F (24 C)
Relative Humidity: 78%
Pressure (altimeter): 30.03 in. Hg (1016 hPa)
ob: KBNL 190135Z AUTO 00000KT 10SM CLR 28/24 A3003 RMK AO2
cycle: 1

Station Type Date Time Source
KBNL TAF UTC NOAA

Error!

Example: see airport list